Time;durP1;ratioP1;P1;durP2;ratioP2;P2;SDS_P1;SDS_P2;PMS_P1;PMS_P2;Temp;Humidity;BMP_temperature;BMP_pressure;BME280_temperature;BME280_humidity;BME280_pressure;Samples;Min_cycle;Max_cycle;Signal;HPM_P1;HPM_P2
2023/03/12 16:49:37;;;;;;;4.22;1.70;;;11.30;99.90;;;;;;5903849;23;20239;-75
2023/03/12 16:52:16;;;;;;;5.33;2.10;;;11.70;99.90;;;;;;4810590;29;2060847;-67
2023/03/12 16:54:43;;;;;;;6.65;2.10;;;11.70;99.90;;;;;;4907050;29;21223;-67
2023/03/12 16:57:17;;;;;;;4.85;2.55;;;11.70;99.90;;;;;;4902918;29;20201;-68
2023/03/12 16:59:44;;;;;;;4.25;2.20;;;11.70;99.90;;;;;;4905049;29;20236;-67
2023/03/12 17:02:16;;;;;;;7.78;2.00;;;11.70;99.90;;;;;;4908559;29;20616;-67
2023/03/12 17:04:43;;;;;;;6.38;2.45;;;11.70;99.90;;;;;;4906052;29;20650;-67
2023/03/12 17:07:10;;;;;;;5.45;2.22;;;11.70;99.90;;;;;;4902847;29;20202;-67
2023/03/12 17:09:39;;;;;;;4.55;2.53;;;11.60;99.90;;;;;;4898494;29;20304;-66
2023/03/12 17:12:11;;;;;;;6.32;1.83;;;11.60;99.90;;;;;;4902888;29;20272;-67
2023/03/12 17:14:38;;;;;;;6.28;2.17;;;11.60;99.90;;;;;;4909392;29;20208;-66
2023/03/12 17:17:05;;;;;;;4.97;2.00;;;11.60;99.90;;;;;;4903883;29;20282;-68
2023/03/12 17:19:32;;;;;;;5.07;2.00;;;11.60;99.90;;;;;;4908420;29;20277;-68
2023/03/12 17:21:59;;;;;;;5.65;2.30;;;11.60;99.90;;;;;;4904060;29;20282;-67
2023/03/12 17:24:27;;;;;;;5.85;2.40;;;11.60;99.90;;;;;;4907536;29;20225;-67
2023/03/12 17:26:56;;;;;;;4.82;2.35;;;11.60;99.90;;;;;;4901520;29;20201;-67
2023/03/12 17:29:24;;;;;;;4.03;2.10;;;11.50;99.90;;;;;;4898010;29;20276;-67
2023/03/12 17:31:51;;;;;;;6.00;2.30;;;11.50;99.90;;;;;;4903997;29;20634;-68
2023/03/12 17:34:18;;;;;;;9.13;2.30;;;11.50;99.90;;;;;;4897761;29;20261;-67
2023/03/12 17:36:45;;;;;;;5.95;2.83;;;11.40;99.90;;;;;;4900789;29;20198;-67
2023/03/12 17:39:12;;;;;;;6.60;2.35;;;11.40;99.90;;;;;;4901698;29;20214;-67
2023/03/12 17:41:39;;;;;;;5.18;2.15;;;11.40;99.90;;;;;;4902309;29;20230;-68
2023/03/12 17:44:08;;;;;;;7.97;2.58;;;11.40;99.90;;;;;;4903784;29;20685;-67
2023/03/12 17:46:36;;;;;;;5.00;2.03;;;11.40;99.90;;;;;;4900850;29;20610;-68
2023/03/12 17:49:03;;;;;;;5.55;1.88;;;11.30;99.90;;;;;;4902406;29;20229;-67
2023/03/12 17:51:30;;;;;;;8.65;2.53;;;11.30;99.90;;;;;;4898220;29;20284;-67
2023/03/12 17:53:57;;;;;;;5.95;2.10;;;11.30;99.90;;;;;;4886785;29;20213;-67
2023/03/12 17:56:24;;;;;;;5.68;2.17;;;11.30;99.90;;;;;;4879991;29;20206;-68
2023/03/12 17:58:52;;;;;;;2.97;1.85;;;11.30;99.90;;;;;;4889150;29;20225;-67
2023/03/12 18:01:20;;;;;;;6.65;2.10;;;11.30;99.90;;;;;;4890310;29;20226;-67
2023/03/12 18:03:49;;;;;;;6.70;2.15;;;11.20;99.90;;;;;;4890969;29;20292;-66
2023/03/12 18:06:17;;;;;;;6.90;3.38;;;11.20;99.90;;;;;;4895673;29;20202;-66
2023/03/12 18:08:44;;;;;;;5.00;2.80;;;11.20;99.90;;;;;;4894523;29;20274;-68
2023/03/12 18:11:11;;;;;;;7.90;2.78;;;11.20;99.90;;;;;;4888553;29;20225;-68
2023/03/12 18:13:38;;;;;;;5.03;2.65;;;11.20;99.90;;;;;;4897339;29;20384;-67
2023/03/12 18:16:05;;;;;;;8.07;3.97;;;11.20;99.90;;;;;;4892923;29;20206;-67
2023/03/12 18:18:33;;;;;;;4.53;2.40;;;11.20;99.90;;;;;;4895385;29;20226;-67
2023/03/12 18:21:01;;;;;;;5.25;2.35;;;11.20;99.90;;;;;;4888495;29;20203;-67
2023/03/12 18:23:28;;;;;;;7.47;2.42;;;11.20;99.90;;;;;;4887902;29;20194;-67
2023/03/12 18:25:55;;;;;;;5.95;2.80;;;11.20;99.90;;;;;;4881231;29;20205;-67
2023/03/12 18:28:23;;;;;;;4.40;2.53;;;11.20;99.90;;;;;;4882683;29;20561;-67
2023/03/12 18:30:50;;;;;;;8.30;2.53;;;11.20;99.90;;;;;;4891956;29;20278;-68
2023/03/12 18:33:17;;;;;;;5.07;2.17;;;11.20;99.90;;;;;;4887614;29;20285;-67
2023/03/12 18:35:46;;;;;;;7.82;1.80;;;11.20;99.90;;;;;;4885238;29;20634;-67
2023/03/12 18:38:13;;;;;;;9.48;2.85;;;11.20;99.90;;;;;;4890730;29;20224;-67
2023/03/12 18:40:40;;;;;;;5.65;1.90;;;11.20;99.90;;;;;;4891775;29;20218;-67
2023/03/12 18:43:07;;;;;;;6.60;2.47;;;11.20;99.90;;;;;;4887764;29;20246;-67
2023/03/12 18:45:34;;;;;;;5.38;2.35;;;11.20;99.90;;;;;;4890885;29;20309;-67
2023/03/12 18:48:01;;;;;;;8.57;3.13;;;11.20;99.90;;;;;;4889508;29;20587;-67
2023/03/12 18:50:28;;;;;;;4.25;2.80;;;11.20;99.90;;;;;;4883676;29;20199;-66
2023/03/12 18:52:57;;;;;;;7.75;2.50;;;11.20;99.90;;;;;;4891382;29;20237;-66
2023/03/12 18:55:23;;;;;;;6.68;2.72;;;11.20;99.90;;;;;;4892883;29;20692;-68
2023/03/12 18:57:51;;;;;;;8.20;3.05;;;11.20;99.90;;;;;;4895456;29;20593;-67
2023/03/12 19:00:19;;;;;;;4.88;2.50;;;11.20;99.90;;;;;;4895790;29;20194;-67
2023/03/12 19:02:47;;;;;;;5.25;2.60;;;11.10;99.90;;;;;;4883677;29;20226;-67
2023/03/12 19:05:14;;;;;;;7.13;3.58;;;11.10;99.90;;;;;;4890266;29;20194;-67
2023/03/12 19:07:41;;;;;;;8.48;5.07;;;11.10;99.90;;;;;;4889477;29;20222;-68
2023/03/12 19:10:11;;;;;;;6.55;2.90;;;11.10;99.90;;;;;;4887863;29;20290;-68
2023/03/12 19:12:38;;;;;;;7.68;3.78;;;11.10;99.90;;;;;;4889055;29;20267;-67
2023/03/12 19:15:06;;;;;;;7.93;3.10;;;11.00;99.90;;;;;;4891187;29;20206;-66
2023/03/12 19:17:33;;;;;;;5.10;2.30;;;11.00;99.90;;;;;;4888663;29;20702;-66
2023/03/12 19:20:00;;;;;;;7.00;2.95;;;11.00;99.90;;;;;;4889137;29;20214;-67
2023/03/12 19:22:27;;;;;;;6.03;2.50;;;11.00;99.90;;;;;;4890870;29;20305;-67
2023/03/12 19:24:54;;;;;;;4.90;2.33;;;11.00;99.90;;;;;;4885367;29;20266;-67
2023/03/12 19:27:23;;;;;;;5.60;2.30;;;10.90;99.90;;;;;;4885027;29;20573;-67
2023/03/12 19:29:50;;;;;;;3.70;2.30;;;10.90;99.90;;;;;;4891711;29;20208;-66
2023/03/12 19:32:17;;;;;;;7.70;2.33;;;10.90;99.90;;;;;;4892163;29;20240;-66
2023/03/12 19:34:47;;;;;;;6.72;2.60;;;10.90;99.90;;;;;;4888836;29;20246;-66
2023/03/12 19:37:14;;;;;;;6.53;2.60;;;10.80;99.90;;;;;;4885862;29;20218;-66
2023/03/12 19:39:42;;;;;;;8.57;3.40;;;10.80;99.90;;;;;;4881814;29;20735;-66
2023/03/12 19:42:09;;;;;;;7.60;2.80;;;10.80;99.90;;;;;;4889737;29;20350;-66
2023/03/12 19:44:39;;;;;;;6.13;3.30;;;10.70;99.90;;;;;;4888847;29;20290;-66
2023/03/12 19:47:07;;;;;;;7.80;3.67;;;10.60;99.90;;;;;;4889318;29;20230;-66
2023/03/12 19:49:34;;;;;;;8.52;3.58;;;10.60;99.90;;;;;;4894266;29;20266;-66
2023/03/12 19:52:01;;;;;;;6.72;2.85;;;10.50;99.90;;;;;;4891188;29;20293;-66
2023/03/12 19:54:28;;;;;;;6.65;2.55;;;10.50;99.90;;;;;;4891394;29;20209;-67
2023/03/12 19:56:55;;;;;;;6.32;2.92;;;10.50;99.90;;;;;;4888600;29;20218;-66
2023/03/12 19:59:23;;;;;;;5.32;2.60;;;10.50;99.90;;;;;;4889437;29;20198;-66
2023/03/12 20:01:51;;;;;;;4.93;2.83;;;10.50;99.90;;;;;;4887201;29;20227;-66
2023/03/12 20:04:19;;;;;;;7.00;2.83;;;10.50;99.90;;;;;;4895317;29;20205;-66
2023/03/12 20:06:46;;;;;;;8.15;2.72;;;10.50;99.90;;;;;;4889701;29;20246;-66
2023/03/12 20:09:13;;;;;;;5.70;2.70;;;10.70;99.90;;;;;;4891921;29;20206;-66
2023/03/12 20:11:40;;;;;;;6.18;2.72;;;10.50;99.90;;;;;;4889919;29;20571;-66
2023/03/12 20:14:07;;;;;;;5.70;3.10;;;10.50;99.90;;;;;;4887988;29;20285;-67
2023/03/12 20:16:34;;;;;;;6.57;3.30;;;10.40;99.90;;;;;;4890587;29;20682;-67
2023/03/12 20:19:03;;;;;;;6.28;3.15;;;10.40;99.90;;;;;;4888739;29;20217;-67
2023/03/12 20:21:30;;;;;;;7.07;3.65;;;10.40;99.90;;;;;;4886779;29;20643;-67
2023/03/12 20:23:57;;;;;;;8.15;3.72;;;10.30;99.90;;;;;;4881319;29;20195;-67
2023/03/12 20:26:24;;;;;;;6.53;3.45;;;10.20;99.90;;;;;;4882118;29;20235;-67
2023/03/12 20:28:51;;;;;;;10.43;3.70;;;10.20;99.90;;;;;;4890179;29;20321;-67
2023/03/12 20:31:18;;;;;;;10.20;4.25;;;10.20;99.90;;;;;;4890495;29;20202;-67
2023/03/12 20:33:45;;;;;;;11.63;4.25;;;10.10;99.90;;;;;;4889299;29;20310;-67
2023/03/12 20:36:14;;;;;;;6.30;3.40;;;10.10;99.90;;;;;;4887065;29;20311;-67
2023/03/12 20:38:41;;;;;;;4.93;3.28;;;10.00;99.90;;;;;;4890428;29;20268;-68
2023/03/12 20:41:11;;;;;;;6.63;3.75;;;10.00;99.90;;;;;;4887421;29;20210;-67
2023/03/12 20:43:39;;;;;;;7.88;3.50;;;10.00;99.90;;;;;;4890557;29;20635;-66
2023/03/12 20:46:06;;;;;;;5.55;3.28;;;10.00;99.90;;;;;;4884968;29;20234;-67
2023/03/12 20:48:33;;;;;;;7.05;3.33;;;10.00;99.90;;;;;;4892466;29;20202;-67
2023/03/12 20:51:00;;;;;;;6.13;3.17;;;9.90;99.90;;;;;;4885580;29;20285;-67
2023/03/12 20:53:29;;;;;;;6.90;3.72;;;9.90;99.90;;;;;;4883014;29;20214;-66
2023/03/12 20:55:57;;;;;;;6.68;3.22;;;9.90;99.90;;;;;;4835125;29;20246;-70
2023/03/12 20:58:24;;;;;;;7.28;3.40;;;9.90;99.90;;;;;;4870785;29;20207;-67
2023/03/12 21:00:51;;;;;;;6.35;3.45;;;9.90;99.90;;;;;;4872504;29;20210;-66
2023/03/12 21:03:18;;;;;;;6.90;3.80;;;9.90;99.90;;;;;;4872996;29;20238;-67
2023/03/12 21:05:52;;;;;;;8.93;3.35;;;9.90;99.90;;;;;;4867044;29;20229;-67
2023/03/12 21:08:20;;;;;;;10.48;3.90;;;9.90;99.90;;;;;;4869750;29;20209;-66
2023/03/12 21:10:48;;;;;;;7.60;3.80;;;9.80;99.90;;;;;;4870882;29;20306;-67
2023/03/12 21:13:15;;;;;;;9.13;3.78;;;9.80;99.90;;;;;;4875266;29;20200;-66
2023/03/12 21:15:42;;;;;;;6.75;3.25;;;9.80;99.90;;;;;;4871222;29;20253;-67
2023/03/12 21:18:09;;;;;;;7.10;3.15;;;9.70;99.90;;;;;;4867466;29;20282;-66
2023/03/12 21:20:39;;;;;;;6.57;3.50;;;9.70;99.90;;;;;;4871407;29;20211;-66
2023/03/12 21:23:07;;;;;;;10.63;4.25;;;9.60;99.90;;;;;;4864374;29;20227;-66
2023/03/12 21:25:34;;;;;;;7.30;3.92;;;9.60;99.90;;;;;;4864883;29;20313;-66
2023/03/12 21:28:03;;;;;;;6.25;3.42;;;9.60;99.90;;;;;;4872074;29;20211;-66
2023/03/12 21:30:30;;;;;;;8.35;3.70;;;9.70;99.90;;;;;;4877495;29;20207;-66
2023/03/12 21:32:57;;;;;;;6.88;3.15;;;9.70;99.90;;;;;;4878620;29;20286;-66
2023/03/12 21:35:25;;;;;;;7.70;3.28;;;9.70;99.90;;;;;;4868415;29;20560;-66
2023/03/12 21:37:53;;;;;;;9.40;4.13;;;9.60;99.90;;;;;;4870215;29;20237;-66
2023/03/12 21:40:20;;;;;;;10.45;3.83;;;9.60;99.90;;;;;;4875511;29;20199;-66
2023/03/12 21:42:47;;;;;;;6.65;3.55;;;9.60;99.90;;;;;;4875524;29;20268;-66
2023/03/12 21:45:16;;;;;;;7.60;3.67;;;9.50;99.90;;;;;;4876619;29;20227;-66
2023/03/12 21:47:43;;;;;;;9.40;4.10;;;9.50;99.90;;;;;;4872767;29;20210;-66
2023/03/12 21:50:11;;;;;;;7.00;3.45;;;9.50;99.90;;;;;;4872169;29;20203;-66
2023/03/12 21:52:38;;;;;;;6.68;3.40;;;9.50;99.90;;;;;;4868467;29;20203;-66
2023/03/12 21:55:07;;;;;;;4.50;3.30;;;9.50;99.90;;;;;;4875838;29;20234;-66
2023/03/12 21:57:35;;;;;;;9.48;4.07;;;9.40;99.90;;;;;;4868228;29;20203;-66
2023/03/12 22:00:04;;;;;;;7.90;3.00;;;9.40;99.90;;;;;;4874493;29;20231;-66
2023/03/12 22:02:32;;;;;;;7.40;3.92;;;9.40;99.90;;;;;;4872302;29;20286;-66
2023/03/12 22:04:59;;;;;;;8.90;3.55;;;9.40;99.90;;;;;;4872743;29;20334;-66
2023/03/12 22:07:29;;;;;;;6.50;3.10;;;9.40;99.90;;;;;;4865172;29;20229;-66
2023/03/12 22:09:56;;;;;;;5.93;3.75;;;9.40;99.90;;;;;;4876441;29;20218;-66
2023/03/12 22:12:23;;;;;;;8.40;3.70;;;9.40;99.90;;;;;;4871331;29;20465;-66
2023/03/12 22:14:51;;;;;;;6.70;3.50;;;9.40;99.90;;;;;;4874146;29;20228;-66
2023/03/12 22:17:18;;;;;;;6.13;3.50;;;9.40;99.90;;;;;;4861726;29;20242;-66
2023/03/12 22:19:47;;;;;;;9.15;3.10;;;9.30;99.90;;;;;;4868773;29;20693;-66
2023/03/12 22:22:14;;;;;;;7.22;3.60;;;9.30;99.90;;;;;;4874084;29;20210;-65
2023/03/12 22:24:41;;;;;;;7.43;3.92;;;9.20;99.90;;;;;;4868416;29;20214;-66
2023/03/12 22:27:08;;;;;;;9.10;3.65;;;9.20;99.90;;;;;;4860995;29;20205;-65
2023/03/12 22:29:36;;;;;;;6.50;3.40;;;9.20;99.90;;;;;;4867164;29;20682;-66
2023/03/12 22:32:03;;;;;;;9.57;3.45;;;9.20;99.90;;;;;;4876765;29;20250;-66
2023/03/12 22:34:30;;;;;;;7.03;3.30;;;9.20;99.90;;;;;;4876451;29;20233;-66
2023/03/12 22:36:58;;;;;;;7.40;3.40;;;9.10;99.90;;;;;;4877003;29;20234;-66
2023/03/12 22:39:25;;;;;;;5.88;3.22;;;9.10;99.90;;;;;;4874201;29;20333;-65
2023/03/12 22:41:52;;;;;;;8.32;3.35;;;9.00;99.90;;;;;;4864150;29;20221;-66
2023/03/12 22:44:20;;;;;;;9.88;3.45;;;9.00;99.90;;;;;;4871900;29;20674;-66
2023/03/12 22:46:46;;;;;;;7.22;3.28;;;8.90;99.90;;;;;;4872122;29;20762;-65
2023/03/12 22:49:15;;;;;;;10.07;3.58;;;9.10;99.90;;;;;;4872705;29;20205;-66
2023/03/12 22:51:42;;;;;;;6.63;3.10;;;8.80;99.90;;;;;;4877850;29;20216;-66
2023/03/12 22:54:10;;;;;;;7.20;3.50;;;8.70;99.90;;;;;;4876272;29;20670;-66
2023/03/12 22:56:37;;;;;;;6.53;3.22;;;8.70;99.90;;;;;;4871033;29;20311;-66
2023/03/12 22:59:04;;;;;;;9.18;4.60;;;8.60;99.90;;;;;;4873910;29;20480;-66
2023/03/12 23:01:31;;;;;;;5.53;3.20;;;8.60;99.90;;;;;;4872997;29;20224;-66
2023/03/12 23:03:59;;;;;;;7.28;4.00;;;8.50;99.90;;;;;;4865576;29;20238;-66
2023/03/12 23:06:28;;;;;;;5.78;3.58;;;8.50;99.90;;;;;;4875842;29;20224;-66
2023/03/12 23:08:56;;;;;;;6.85;3.65;;;8.60;99.90;;;;;;4875626;29;20202;-66
2023/03/12 23:11:25;;;;;;;7.40;3.95;;;8.60;99.90;;;;;;4871782;29;20220;-66
2023/03/12 23:13:53;;;;;;;9.60;4.10;;;8.60;99.90;;;;;;4876511;29;20296;-66
2023/03/12 23:16:21;;;;;;;6.28;3.30;;;8.60;99.90;;;;;;4874468;29;20248;-66
2023/03/12 23:18:49;;;;;;;8.93;3.55;;;8.60;99.90;;;;;;4873883;29;20285;-66
2023/03/12 23:21:18;;;;;;;10.48;3.50;;;8.60;99.90;;;;;;4878181;29;20718;-66
2023/03/12 23:23:46;;;;;;;8.75;4.28;;;8.60;99.90;;;;;;4876001;29;20228;-66
2023/03/12 23:26:15;;;;;;;7.80;3.83;;;8.60;99.90;;;;;;4869189;29;20224;-65
2023/03/12 23:28:45;;;;;;;6.80;3.72;;;8.60;99.90;;;;;;4867371;29;20232;-66
2023/03/12 23:31:14;;;;;;;6.97;3.30;;;8.60;99.90;;;;;;4875571;29;20261;-66
2023/03/12 23:33:41;;;;;;;6.78;3.97;;;8.60;99.90;;;;;;4876450;29;20429;-66
2023/03/12 23:36:11;;;;;;;10.10;3.40;;;8.50;99.90;;;;;;4861389;29;20312;-66
2023/03/12 23:38:38;;;;;;;6.80;3.70;;;8.60;99.90;;;;;;4868090;29;20299;-66
2023/03/12 23:41:06;;;;;;;7.45;3.45;;;8.60;99.90;;;;;;4876371;29;20577;-66
2023/03/12 23:43:34;;;;;;;11.95;4.78;;;8.60;99.90;;;;;;4872360;29;20235;-66
2023/03/12 23:46:04;;;;;;;6.45;4.07;;;8.60;99.90;;;;;;4874707;29;20333;-66
2023/03/12 23:48:32;;;;;;;8.10;3.80;;;8.60;99.90;;;;;;4875040;29;20208;-66
2023/03/12 23:51:04;;;;;;;8.85;4.18;;;8.60;99.90;;;;;;4872643;29;20213;-66
2023/03/12 23:53:31;;;;;;;7.50;3.72;;;8.60;99.90;;;;;;4877566;29;20266;-66
2023/03/12 23:56:00;;;;;;;10.25;4.38;;;8.60;99.90;;;;;;4868503;29;20222;-66
2023/03/12 23:58:28;;;;;;;8.20;3.67;;;8.50;99.90;;;;;;4861302;29;20217;-66
